createdAt,value
2023-02-03T17:55:24.636Z,99463.40
2023-02-03T17:57:53.266Z,99470.20
2023-02-03T18:00:35.738Z,99460.80
2023-02-03T18:03:04.269Z,99469.80
2023-02-03T18:05:33.210Z,99460.60
2023-02-03T18:08:08.929Z,99469.80
2023-02-03T18:10:59.936Z,99478.60
2023-02-03T18:13:28.447Z,99479.60
2023-02-03T18:15:57.428Z,99470.80
2023-02-03T18:18:27.003Z,99456.40
2023-02-03T18:23:38.959Z,99460.40
2023-02-03T18:26:21.557Z,99448.80
2023-02-03T18:28:55.922Z,99454.20
2023-02-03T18:31:28.266Z,99467.20
2023-02-03T18:34:01.006Z,99479.00
2023-02-03T18:36:29.927Z,99468.60
2023-02-03T18:38:58.714Z,99474.80
2023-02-03T18:41:28.842Z,99473.80
2023-02-03T18:43:57.625Z,99475.60
2023-02-03T18:46:31.364Z,99477.20
2023-02-03T18:49:14.473Z,99479.80
2023-02-03T18:51:43.141Z,99475.60
2023-02-03T18:54:13.631Z,99477.40
2023-02-03T18:59:26.280Z,99495.40
2023-02-03T19:01:55.414Z,99501.00
2023-02-03T19:04:24.394Z,99505.40
2023-02-03T19:07:06.907Z,99504.80
2023-02-03T19:09:49.505Z,99494.40
2023-02-03T19:12:18.113Z,99500.20
2023-02-03T19:14:46.698Z,99494.40
2023-02-03T19:17:16.914Z,99495.20
2023-02-03T19:19:45.718Z,99497.60
2023-02-03T19:22:14.402Z,99496.00
2023-02-03T19:24:44.380Z,99496.60
2023-02-03T19:27:26.662Z,99498.00
2023-02-03T19:29:55.315Z,99495.40
2023-02-03T19:32:24.236Z,99485.60
2023-02-03T19:34:53.399Z,99498.60
2023-02-03T19:37:35.676Z,99496.40
2023-02-03T19:40:05.433Z,99494.80
2023-02-03T19:42:34.203Z,99488.80
2023-02-03T19:45:02.831Z,99489.80
2023-02-03T19:47:31.742Z,99491.60
2023-02-03T19:50:00.225Z,99484.20
2023-02-03T19:52:29.343Z,99498.40
2023-02-03T19:54:58.144Z,99497.80
2023-02-03T19:57:27.404Z,99497.00
2023-02-03T19:59:57.073Z,99497.60
2023-02-03T20:02:27.414Z,99502.20
2023-02-03T20:04:56.490Z,99507.80
2023-02-03T20:07:25.787Z,99508.20
2023-02-03T20:09:54.665Z,99506.80
2023-02-03T20:12:23.563Z,99502.80
2023-02-03T20:14:52.423Z,99503.20
2023-02-03T20:17:21.149Z,99495.60
2023-02-03T20:19:49.849Z,99496.20
2023-02-03T20:22:18.510Z,99502.00
2023-02-03T20:24:47.627Z,99510.20
2023-02-03T20:30:14.542Z,99515.00
2023-02-03T20:32:43.362Z,99512.40
2023-02-03T20:35:12.986Z,99514.80
2023-02-03T20:37:41.763Z,99523.20
2023-02-03T20:40:17.448Z,99500.40
2023-02-03T20:45:30.967Z,99512.20
2023-02-03T20:47:59.967Z,99504.00
2023-02-03T20:50:40.527Z,99498.60
2023-02-03T20:53:17.925Z,99498.80
2023-02-03T20:55:48.442Z,99494.60
2023-02-03T20:58:22.343Z,99488.40
2023-02-03T21:00:52.127Z,99487.80
2023-02-03T21:03:35.295Z,99485.80
2023-02-03T21:06:14.793Z,99481.60
2023-02-03T21:08:44.950Z,99481.20
2023-02-03T21:11:29.751Z,99482.80
2023-02-03T21:13:58.933Z,99468.40
2023-02-03T21:16:39.532Z,99468.40
2023-02-03T21:22:33.500Z,99479.40
2023-02-03T21:25:03.652Z,99470.80
2023-02-03T21:27:34.951Z,99470.20
2023-02-03T21:30:35.004Z,99469.80
2023-02-03T21:33:43.897Z,99478.00
2023-02-03T21:39:42.210Z,99469.00
2023-02-03T21:42:43.834Z,99473.60
2023-02-03T21:45:15.077Z,99471.20
2023-02-03T21:47:46.552Z,99478.40
2023-02-03T21:50:42.273Z,99478.60
2023-02-03T21:53:11.496Z,99479.40
2023-02-03T21:55:43.036Z,99474.00
2023-02-03T21:58:31.004Z,99487.60
2023-02-03T22:01:16.933Z,99485.20
2023-02-03T22:03:55.442Z,99490.40
2023-02-03T22:06:54.074Z,99486.00
2023-02-03T22:09:25.841Z,99487.80
2023-02-03T22:11:54.510Z,99482.40
2023-02-03T22:14:23.326Z,99477.80
2023-02-03T22:16:52.112Z,99487.40
2023-02-03T22:19:34.631Z,99486.60
2023-02-03T22:22:03.091Z,99478.00
2023-02-03T22:24:31.474Z,99472.40
2023-02-03T22:27:00.413Z,99476.00
2023-02-03T22:29:43.069Z,99468.60
2023-02-03T22:32:11.673Z,99470.20
2023-02-03T22:34:40.250Z,99474.80
2023-02-03T22:37:09.028Z,99465.40
2023-02-03T22:39:37.529Z,99472.60
2023-02-03T22:42:06.387Z,99475.80
2023-02-03T22:47:16.988Z,99466.40
2023-02-03T22:49:45.867Z,99467.40
2023-02-03T22:52:14.426Z,99470.60
2023-02-03T22:54:43.349Z,99465.80
2023-02-03T22:57:11.931Z,99469.20
2023-02-03T23:00:40.795Z,99458.20
2023-02-03T23:04:19.422Z,99470.60
2023-02-03T23:07:50.087Z,99448.80
2023-02-03T23:11:36.936Z,99471.60
2023-02-03T23:15:05.587Z,99465.60
2023-02-03T23:18:46.809Z,99467.40
2023-02-03T23:22:19.193Z,99463.20
2023-02-03T23:26:41.769Z,99479.00
2023-02-03T23:30:13.260Z,99495.40
2023-02-03T23:33:56.794Z,99525.20
2023-02-03T23:37:57.633Z,99490.60
2023-02-03T23:42:18.838Z,99530.00
2023-02-03T23:46:20.028Z,99558.20
2023-02-03T23:50:19.103Z,99541.80
2023-02-03T23:53:51.145Z,99557.60
